Time;durP1;ratioP1;P1;durP2;ratioP2;P2;SDS_P1;SDS_P2;PMS_P1;PMS_P2;Temp;Humidity;BMP_temperature;BMP_pressure;BME280_temperature;BME280_humidity;BME280_pressure;Samples;Min_cycle;Max_cycle;Signal;HPM_P1;HPM_P2
2021/11/19 00:01:10;;;;;;;11.27;7.20;;;7.30;99.90;;;;;;5037752;28;20099;-87
2021/11/19 00:03:37;;;;;;;11.30;7.70;;;7.40;99.90;;;;;;5054685;28;20045;-87
2021/11/19 00:06:04;;;;;;;11.50;7.18;;;7.30;99.90;;;;;;5055198;28;20139;-87
2021/11/19 00:08:31;;;;;;;11.23;7.18;;;7.30;99.90;;;;;;5057251;28;20048;-88
2021/11/19 00:11:01;;;;;;;15.23;8.45;;;7.30;99.90;;;;;;5057190;28;20104;-88
2021/11/19 00:13:31;;;;;;;11.25;6.97;;;7.40;99.90;;;;;;5074674;28;20048;-88
2021/11/19 00:15:58;;;;;;;9.70;7.10;;;7.40;99.90;;;;;;5048668;28;20059;-88
2021/11/19 00:18:25;;;;;;;9.32;6.90;;;7.40;99.90;;;;;;5053263;28;20049;-87
2021/11/19 00:20:53;;;;;;;10.50;6.05;;;7.40;99.90;;;;;;5054605;28;20071;-87
2021/11/19 00:23:20;;;;;;;10.90;7.10;;;7.50;99.90;;;;;;5049593;28;20072;-88
2021/11/19 00:25:48;;;;;;;10.65;6.82;;;7.40;99.90;;;;;;5053821;28;20056;-88
2021/11/19 00:28:15;;;;;;;11.85;6.90;;;7.40;99.90;;;;;;5051625;28;20076;-86
2021/11/19 00:30:42;;;;;;;11.20;7.78;;;7.40;99.90;;;;;;5073201;28;20052;-86
2021/11/19 00:33:10;;;;;;;10.25;6.80;;;7.40;99.90;;;;;;5056276;28;20059;-88
2021/11/19 00:35:39;;;;;;;9.68;6.82;;;7.40;99.90;;;;;;5056874;28;20128;-88
2021/11/19 00:38:07;;;;;;;9.35;6.88;;;7.40;99.90;;;;;;5050748;28;20132;-87
2021/11/19 00:40:51;;;;;;;10.00;5.95;;;7.50;99.90;;;;;;5054053;28;20071;-87
2021/11/19 00:43:19;;;;;;;7.00;5.75;;;7.50;99.90;;;;;;5054304;28;20105;-87
2021/11/19 00:45:47;;;;;;;8.65;6.80;;;7.50;99.90;;;;;;5054121;28;20084;-88
2021/11/19 00:48:14;;;;;;;7.97;6.10;;;7.50;99.90;;;;;;5048471;28;20132;-88
2021/11/19 00:50:49;;;;;;;9.05;5.20;;;7.60;99.90;;;;;;5056057;28;20048;-88
2021/11/19 00:53:16;;;;;;;8.40;5.38;;;7.60;99.90;;;;;;5074203;28;20044;-87
2021/11/19 00:55:43;;;;;;;8.90;4.93;;;7.60;99.90;;;;;;5056099;28;20636;-88
2021/11/19 00:58:10;;;;;;;9.10;5.47;;;7.60;99.90;;;;;;5056247;28;20127;-86
2021/11/19 01:00:46;;;;;;;7.35;5.20;;;7.60;99.90;;;;;;5055760;28;20054;-87
2021/11/19 01:03:13;;;;;;;7.57;4.88;;;7.60;99.90;;;;;;5056994;28;20052;-87
2021/11/19 01:05:40;;;;;;;7.47;5.18;;;7.60;99.90;;;;;;5056097;28;20044;-87
2021/11/19 01:08:07;;;;;;;5.05;4.50;;;7.70;99.90;;;;;;5056136;28;20367;-86
2021/11/19 01:10:37;;;;;;;8.50;5.30;;;7.70;99.90;;;;;;5055974;28;20135;-86
2021/11/19 01:13:06;;;;;;;6.63;4.50;;;7.60;99.90;;;;;;5047838;28;20139;-86
2021/11/19 01:15:39;;;;;;;5.38;4.75;;;7.70;99.90;;;;;;5052711;28;20139;-86
2021/11/19 01:18:09;;;;;;;;;;;7.70;99.90;;;;;;5046616;28;20062;-86
2021/11/19 01:20:40;;;;;;;5.68;3.92;;;7.70;99.90;;;;;;5052438;28;20008;-87
2021/11/19 01:23:10;;;;;;;5.82;4.18;;;7.70;99.90;;;;;;5054363;28;20536;-87
2021/11/19 01:25:41;;;;;;;4.45;4.03;;;7.70;99.90;;;;;;5052357;28;20084;-87
2021/11/19 01:28:08;;;;;;;5.13;3.63;;;7.70;99.90;;;;;;5052869;28;20068;-87
2021/11/19 01:30:45;;;;;;;5.72;3.28;;;7.70;99.90;;;;;;5053279;28;20056;-86
2021/11/19 01:33:13;;;;;;;4.55;3.42;;;7.70;99.90;;;;;;5066868;28;20048;-86
2021/11/19 01:35:40;;;;;;;5.13;3.47;;;7.70;99.90;;;;;;5055580;28;20131;-86
2021/11/19 01:38:08;;;;;;;5.30;3.72;;;7.80;99.90;;;;;;5056101;28;20055;-86
2021/11/19 01:40:38;;;;;;;4.43;3.67;;;7.80;99.90;;;;;;5073271;28;20074;-87
2021/11/19 01:43:08;;;;;;;4.28;3.08;;;7.80;99.90;;;;;;5051902;28;20095;-87
2021/11/19 01:45:39;;;;;;;4.38;3.05;;;7.80;99.90;;;;;;5052066;28;20060;-87
2021/11/19 01:48:10;;;;;;;3.72;3.30;;;7.80;99.90;;;;;;5052204;28;20045;-87
2021/11/19 01:51:08;;;;;;;3.35;3.08;;;7.80;99.90;;;;;;5053104;28;20139;-87
2021/11/19 01:53:43;;;;;;;2.95;2.63;;;7.80;99.90;;;;;;5044966;28;20041;-87
2021/11/19 01:56:21;;;;;;;3.00;2.80;;;7.80;99.90;;;;;;5052064;28;20045;-87
2021/11/19 01:58:58;;;;;;;3.40;2.80;;;7.80;99.90;;;;;;5052391;28;20045;-87
2021/11/19 02:01:33;;;;;;;4.07;2.60;;;7.80;99.90;;;;;;5052468;28;20083;-87
2021/11/19 02:04:10;;;;;;;3.03;2.72;;;7.90;99.90;;;;;;5067393;28;20118;-86
2021/11/19 02:06:45;;;;;;;5.63;2.50;;;7.90;99.90;;;;;;5055452;28;20048;-87
2021/11/19 02:09:23;;;;;;;2.80;2.60;;;7.90;99.90;;;;;;5073393;28;20054;-87
2021/11/19 02:12:09;;;;;;;3.33;2.90;;;7.90;99.90;;;;;;5055938;28;20059;-86
2021/11/19 02:15:08;;;;;;;3.05;2.85;;;7.90;99.90;;;;;;5065196;28;20073;-85
2021/11/19 02:17:36;;;;;;;2.75;2.45;;;7.80;99.90;;;;;;5051677;28;20533;-86
2021/11/19 02:20:11;;;;;;;4.47;2.60;;;7.80;99.90;;;;;;5052439;28;20053;-86
2021/11/19 02:22:44;;;;;;;2.88;2.67;;;7.80;99.90;;;;;;5052994;28;20056;-87
2021/11/19 02:25:21;;;;;;;2.75;2.55;;;7.80;99.90;;;;;;5054941;28;20492;-86
2021/11/19 02:27:53;;;;;;;2.97;2.67;;;7.90;99.90;;;;;;5055259;28;20052;-87
2021/11/19 02:30:33;;;;;;;3.03;2.75;;;7.80;99.90;;;;;;5057081;28;20411;-86
2021/11/19 02:33:06;;;;;;;2.70;2.50;;;7.80;99.90;;;;;;5076825;28;20044;-87
2021/11/19 02:35:53;;;;;;;2.50;2.30;;;7.80;99.90;;;;;;5055691;28;20053;-87
2021/11/19 02:38:23;;;;;;;2.33;2.13;;;7.80;99.90;;;;;;5056723;28;20049;-87
2021/11/19 02:40:51;;;;;;;2.50;2.40;;;7.80;99.90;;;;;;5062226;28;20411;-89
2021/11/19 02:43:25;;;;;;;3.10;2.25;;;7.70;99.90;;;;;;5059713;28;20048;-87
2021/11/19 02:45:54;;;;;;;2.75;2.58;;;7.70;99.90;;;;;;5044599;28;20055;-87
2021/11/19 02:48:27;;;;;;;3.08;2.42;;;7.80;99.90;;;;;;5056282;28;20056;-87
2021/11/19 02:50:56;;;;;;;2.33;2.22;;;7.80;99.90;;;;;;5046048;28;20039;-88
2021/11/19 02:53:23;;;;;;;2.67;2.42;;;7.80;99.90;;;;;;5076214;28;20091;-87
2021/11/19 02:55:53;;;;;;;2.38;2.28;;;7.80;99.90;;;;;;5058708;28;20040;-87
2021/11/19 02:58:24;;;;;;;4.00;2.58;;;7.80;99.90;;;;;;5057579;28;20116;-87
2021/11/19 03:00:54;;;;;;;3.70;2.03;;;7.80;99.90;;;;;;5038604;28;20052;-87
2021/11/19 03:03:20;;;;;;;2.63;2.42;;;7.80;99.90;;;;;;5038772;28;20056;-87
2021/11/19 03:05:47;;;;;;;2.88;2.30;;;7.80;99.90;;;;;;5038514;28;20090;-86
2021/11/19 03:08:14;;;;;;;2.20;2.10;;;7.80;99.90;;;;;;5038701;28;20128;-87
2021/11/19 03:10:45;;;;;;;2.00;1.90;;;7.80;99.90;;;;;;5038157;28;20124;-87
2021/11/19 03:13:14;;;;;;;1.90;1.80;;;7.80;99.90;;;;;;5038118;28;20128;-86
2021/11/19 03:15:48;;;;;;;3.75;2.05;;;7.80;99.90;;;;;;5038011;28;20500;-87
2021/11/19 03:18:17;;;;;;;2.40;2.20;;;7.80;99.90;;;;;;5039041;28;20145;-87
2021/11/19 03:20:46;;;;;;;3.50;2.55;;;7.80;99.90;;;;;;5075630;28;20404;-88
2021/11/19 03:23:14;;;;;;;1.85;1.75;;;7.80;99.90;;;;;;5058137;28;20075;-86
2021/11/19 03:25:43;;;;;;;4.55;2.00;;;7.80;99.90;;;;;;5075657;28;20052;-87
2021/11/19 03:28:13;;;;;;;1.90;1.80;;;7.70;99.90;;;;;;5058006;28;20140;-87
2021/11/19 03:30:42;;;;;;;1.60;1.50;;;7.70;99.90;;;;;;5054505;28;20055;-87
2021/11/19 03:33:12;;;;;;;2.25;1.85;;;7.80;99.90;;;;;;5054604;28;20153;-87
2021/11/19 03:35:39;;;;;;;1.90;1.80;;;7.80;99.90;;;;;;5055420;28;20041;-87
2021/11/19 03:38:07;;;;;;;2.67;1.95;;;7.70;99.90;;;;;;5055819;28;20049;-85
2021/11/19 03:40:37;;;;;;;1.92;1.83;;;7.70;99.90;;;;;;5056495;28;20240;-86
2021/11/19 03:43:08;;;;;;;2.22;2.08;;;7.70;99.90;;;;;;5056292;28;20055;-87
2021/11/19 03:45:39;;;;;;;1.30;1.30;;;7.80;99.90;;;;;;5037850;28;20504;-86
2021/11/19 03:48:07;;;;;;;1.70;1.60;;;7.80;99.90;;;;;;5037962;28;20053;-86
2021/11/19 03:50:40;;;;;;;1.48;1.38;;;7.80;99.90;;;;;;5056677;28;20162;-86
2021/11/19 03:53:09;;;;;;;1.48;1.38;;;7.80;99.90;;;;;;5075224;28;20106;-87
2021/11/19 03:55:39;;;;;;;1.92;1.52;;;7.80;99.90;;;;;;5057635;28;20131;-86
2021/11/19 03:58:06;;;;;;;1.65;1.55;;;7.80;99.90;;;;;;5057865;28;20052;-86
2021/11/19 04:00:40;;;;;;;1.75;1.52;;;7.70;99.90;;;;;;5055779;28;20062;-86
2021/11/19 04:03:09;;;;;;;3.80;2.30;;;7.80;99.90;;;;;;5054105;28;20457;-86
2021/11/19 04:05:36;;;;;;;1.45;1.35;;;7.80;99.90;;;;;;5053725;28;20049;-86
2021/11/19 04:08:05;;;;;;;3.35;1.88;;;7.80;99.90;;;;;;5054198;28;20071;-86
2021/11/19 04:10:33;;;;;;;1.33;1.10;;;7.70;99.90;;;;;;5053573;28;20049;-86
2021/11/19 04:13:01;;;;;;;1.17;1.17;;;7.70;99.90;;;;;;5074373;28;20377;-87
2021/11/19 04:15:34;;;;;;;1.20;1.20;;;7.80;99.90;;;;;;5056846;28;20119;-86
2021/11/19 04:18:02;;;;;;;1.48;1.38;;;7.80;99.90;;;;;;5056866;28;20055;-86
2021/11/19 04:20:30;;;;;;;1.98;1.20;;;7.80;99.90;;;;;;5057201;28;20163;-86
2021/11/19 04:22:57;;;;;;;1.10;1.10;;;7.80;99.90;;;;;;5055101;28;20049;-86
2021/11/19 04:25:25;;;;;;;1.30;1.27;;;7.80;99.90;;;;;;5036810;28;20063;-86
2021/11/19 04:27:53;;;;;;;1.52;1.52;;;7.90;99.90;;;;;;5054416;28;20136;-86
2021/11/19 04:30:25;;;;;;;1.85;1.10;;;7.80;99.90;;;;;;5054308;28;20124;-87
2021/11/19 04:32:52;;;;;;;1.50;1.50;;;7.90;99.90;;;;;;5036652;28;20055;-88
2021/11/19 04:35:20;;;;;;;1.65;1.55;;;7.90;99.90;;;;;;5054887;28;20055;-88
2021/11/19 04:37:48;;;;;;;2.08;1.65;;;7.90;99.90;;;;;;5074390;28;20055;-87
2021/11/19 04:40:16;;;;;;;1.60;1.48;;;7.80;99.90;;;;;;5074368;28;20048;-85
2021/11/19 04:42:43;;;;;;;1.30;1.30;;;7.80;99.90;;;;;;5073995;28;20049;-87
2021/11/19 04:45:13;;;;;;;1.67;1.58;;;7.80;99.90;;;;;;5056135;28;20523;-88
2021/11/19 04:47:40;;;;;;;2.25;1.52;;;7.80;99.90;;;;;;5056794;28;20054;-86
2021/11/19 04:50:10;;;;;;;1.88;1.48;;;7.80;99.90;;;;;;5056393;28;20048;-87
2021/11/19 04:52:37;;;;;;;1.55;1.50;;;7.80;99.90;;;;;;5055654;28;20150;-86
2021/11/19 04:55:07;;;;;;;1.25;1.15;;;7.80;99.90;;;;;;5073597;28;20048;-86
2021/11/19 04:57:33;;;;;;;1.35;1.27;;;7.80;99.90;;;;;;5056251;28;20485;-87
2021/11/19 05:00:02;;;;;;;1.77;1.30;;;7.80;99.90;;;;;;5054670;28;20424;-87
2021/11/19 05:02:29;;;;;;;1.50;1.40;;;7.80;99.90;;;;;;5054483;28;20048;-86
2021/11/19 05:04:56;;;;;;;1.70;1.65;;;7.80;99.90;;;;;;5054517;28;20382;-87
2021/11/19 05:07:22;;;;;;;1.33;1.25;;;7.80;99.90;;;;;;5054377;28;20416;-87
2021/11/19 05:09:49;;;;;;;1.17;1.00;;;7.80;99.90;;;;;;5072074;28;20044;-87
2021/11/19 05:12:24;;;;;;;1.80;1.50;;;7.80;99.90;;;;;;5071835;28;20048;-86
2021/11/19 05:14:51;;;;;;;2.10;1.10;;;7.80;99.90;;;;;;5055806;28;20511;-86
2021/11/19 05:17:22;;;;;;;1.63;1.23;;;7.80;99.90;;;;;;5055908;28;20082;-88
2021/11/19 05:19:50;;;;;;;2.42;1.38;;;7.80;99.90;;;;;;5073782;28;20069;-88
2021/11/19 05:22:17;;;;;;;3.63;1.58;;;7.80;99.90;;;;;;5056025;28;20087;-87
2021/11/19 05:24:45;;;;;;;2.03;1.85;;;7.80;99.90;;;;;;5072417;28;20048;-86
2021/11/19 05:27:12;;;;;;;2.05;1.58;;;7.80;99.90;;;;;;5073371;28;20484;-87
2021/11/19 05:29:39;;;;;;;1.38;1.27;;;7.80;99.90;;;;;;5072461;28;20060;-86
2021/11/19 05:32:07;;;;;;;19.80;8.23;;;7.80;99.90;;;;;;5073426;28;20518;-86
2021/11/19 05:34:34;;;;;;;16.13;8.07;;;7.80;99.90;;;;;;5054771;28;20045;-86
2021/11/19 05:37:01;;;;;;;4.28;2.63;;;7.80;99.90;;;;;;5072059;28;20415;-86
2021/11/19 05:39:28;;;;;;;4.00;2.47;;;7.80;99.90;;;;;;5072207;28;20055;-86
2021/11/19 05:41:55;;;;;;;1.23;1.20;;;7.80;99.90;;;;;;5058146;28;20120;-88
2021/11/19 05:44:23;;;;;;;1.33;1.00;;;7.80;99.90;;;;;;5055757;28;20124;-86
2021/11/19 05:46:50;;;;;;;1.15;1.08;;;7.80;99.90;;;;;;5073216;28;20083;-87
2021/11/19 05:49:20;;;;;;;1.17;1.08;;;7.80;99.90;;;;;;5071657;28;20084;-87
2021/11/19 05:51:53;;;;;;;1.17;1.05;;;7.80;99.90;;;;;;5055237;28;20061;-87
2021/11/19 05:54:22;;;;;;;0.68;0.68;;;7.80;99.90;;;;;;5073212;28;20059;-87
2021/11/19 05:56:50;;;;;;;0.80;0.80;;;7.80;99.90;;;;;;5072523;28;20048;-87
2021/11/19 05:59:17;;;;;;;1.35;1.13;;;7.90;99.90;;;;;;5064845;28;20049;-87
2021/11/19 06:01:45;;;;;;;27.38;2.90;;;7.90;99.90;;;;;;5035367;28;20049;-86
2021/11/19 06:04:13;;;;;;;5.00;1.63;;;7.90;99.90;;;;;;5054539;28;20078;-86
2021/11/19 06:06:42;;;;;;;0.80;0.80;;;7.90;99.90;;;;;;5039492;28;20048;-85
2021/11/19 06:09:17;;;;;;;0.88;0.88;;;7.90;99.90;;;;;;5047025;28;20481;-86
2021/11/19 06:11:48;;;;;;;1.00;1.00;;;7.80;99.90;;;;;;5076141;28;20159;-88
2021/11/19 06:14:25;;;;;;;0.88;0.88;;;7.80;99.90;;;;;;5077019;28;20064;-86
2021/11/19 06:16:59;;;;;;;2.20;0.80;;;7.80;99.90;;;;;;5075846;28;20052;-86
2021/11/19 06:19:35;;;;;;;1.35;0.80;;;7.60;99.90;;;;;;5076684;28;20470;-86
2021/11/19 06:22:08;;;;;;;1.33;1.23;;;7.60;99.90;;;;;;5075899;28;20055;-86
2021/11/19 06:24:39;;;;;;;1.05;1.05;;;7.50;99.90;;;;;;5076741;28;20045;-86
2021/11/19 06:27:09;;;;;;;0.80;0.80;;;7.40;99.90;;;;;;5076806;28;20117;-86
2021/11/19 06:29:36;;;;;;;3.78;0.90;;;7.40;99.90;;;;;;5061813;28;20460;-86
2021/11/19 06:32:03;;;;;;;6.15;1.33;;;7.30;99.90;;;;;;5056447;28;20048;-86
2021/11/19 06:34:30;;;;;;;1.33;1.10;;;7.30;99.90;;;;;;5058882;28;20045;-87
2021/11/19 06:36:58;;;;;;;0.80;0.80;;;7.30;99.90;;;;;;5059202;28;20064;-86
2021/11/19 06:39:33;;;;;;;1.00;0.93;;;7.30;99.90;;;;;;5052165;28;20041;-86
2021/11/19 06:42:00;;;;;;;0.75;0.75;;;7.30;99.90;;;;;;5038778;28;20049;-86
2021/11/19 06:44:28;;;;;;;2.25;0.85;;;7.30;99.90;;;;;;5044167;28;20399;-86
2021/11/19 06:46:55;;;;;;;1.85;0.82;;;7.30;99.90;;;;;;5058757;28;20072;-86
2021/11/19 06:49:22;;;;;;;2.05;0.80;;;7.30;99.90;;;;;;5058611;28;20055;-86
2021/11/19 06:51:49;;;;;;;0.80;0.77;;;7.30;99.90;;;;;;5058422;28;20049;-87
2021/11/19 06:54:16;;;;;;;1.23;0.80;;;7.40;99.90;;;;;;5047587;28;20080;-86
2021/11/19 06:56:43;;;;;;;1.98;0.60;;;7.40;99.90;;;;;;5054888;28;20135;-86
2021/11/19 06:59:10;;;;;;;5.75;0.65;;;7.40;99.90;;;;;;5058483;28;20064;-87
2021/11/19 07:01:37;;;;;;;1.52;0.70;;;7.50;99.90;;;;;;5058489;28;20561;-86
2021/11/19 07:04:05;;;;;;;0.80;0.60;;;7.60;99.90;;;;;;5057672;28;20090;-86
2021/11/19 07:06:32;;;;;;;1.02;0.65;;;7.60;99.90;;;;;;5067494;28;20051;-86
2021/11/19 07:09:00;;;;;;;1.75;0.75;;;7.70;99.90;;;;;;5042860;28;20161;-86
2021/11/19 07:11:27;;;;;;;1.20;0.80;;;7.80;99.90;;;;;;5064465;28;20052;-86
2021/11/19 07:13:54;;;;;;;0.70;0.70;;;7.80;99.90;;;;;;5050273;28;20041;-86
2021/11/19 07:16:24;;;;;;;0.73;0.73;;;7.80;99.90;;;;;;5063418;28;20088;-86
2021/11/19 07:18:53;;;;;;;0.60;0.60;;;7.90;99.90;;;;;;5037576;28;20508;-86
2021/11/19 07:21:21;;;;;;;1.55;1.05;;;8.00;99.90;;;;;;5038098;28;20128;-87
2021/11/19 07:23:48;;;;;;;2.17;0.68;;;8.00;99.90;;;;;;5055471;28;20148;-87
2021/11/19 07:26:16;;;;;;;0.65;0.65;;;8.00;99.90;;;;;;5054150;28;20048;-87
2021/11/19 07:28:44;;;;;;;1.00;0.57;;;8.10;99.90;;;;;;5034547;28;20486;-86
2021/11/19 07:31:15;;;;;;;2.15;0.80;;;8.10;99.90;;;;;;5034034;28;20048;-86
2021/11/19 07:33:43;;;;;;;9.55;0.98;;;8.10;99.90;;;;;;5033344;28;20465;-86
2021/11/19 07:36:12;;;;;;;3.38;0.57;;;8.10;99.90;;;;;;5034240;28;20128;-86
2021/11/19 07:38:41;;;;;;;0.73;0.73;;;8.10;99.90;;;;;;5035484;28;20053;-86
2021/11/19 07:41:09;;;;;;;3.05;0.57;;;8.20;99.90;;;;;;5037720;28;20365;-87
2021/11/19 07:43:40;;;;;;;4.03;0.65;;;8.10;99.90;;;;;;5037725;28;20053;-86
2021/11/19 07:46:08;;;;;;;0.70;0.70;;;8.10;99.90;;;;;;5037580;28;20049;-86
2021/11/19 07:48:37;;;;;;;0.93;0.50;;;8.20;99.90;;;;;;5036903;28;20053;-87
2021/11/19 07:51:07;;;;;;;0.40;0.40;;;8.10;99.90;;;;;;5044500;28;20045;-87
2021/11/19 07:53:34;;;;;;;0.35;0.35;;;8.10;99.90;;;;;;5036199;28;20055;-86
2021/11/19 07:56:03;;;;;;;1.23;0.55;;;8.10;99.90;;;;;;5037035;28;20069;-86
2021/11/19 07:58:32;;;;;;;1.77;1.33;;;8.10;99.90;;;;;;5036666;28;20127;-87
2021/11/19 08:00:59;;;;;;;0.50;0.50;;;8.10;99.90;;;;;;5053974;28;20124;-88
2021/11/19 08:03:27;;;;;;;0.82;0.40;;;8.10;99.90;;;;;;5053583;28;20059;-87
2021/11/19 08:05:58;;;;;;;0.75;0.40;;;8.10;99.90;;;;;;5035777;28;20136;-87
2021/11/19 08:08:27;;;;;;;0.43;0.43;;;8.10;99.90;;;;;;5036730;28;20049;-87
2021/11/19 08:10:58;;;;;;;0.30;0.30;;;8.30;99.90;;;;;;5036643;28;20400;-87
2021/11/19 08:13:24;;;;;;;1.83;0.50;;;8.40;99.90;;;;;;5032511;28;20049;-87
2021/11/19 08:15:51;;;;;;;0.68;0.47;;;8.40;99.90;;;;;;5034084;28;20139;-87
2021/11/19 08:18:26;;;;;;;0.77;0.60;;;8.40;99.90;;;;;;5070399;28;20053;-88
2021/11/19 08:20:55;;;;;;;0.55;0.47;;;8.40;99.90;;;;;;5074331;28;20500;-86
2021/11/19 08:23:34;;;;;;;0.50;0.50;;;8.40;99.90;;;;;;5054820;28;20062;-87
2021/11/19 08:26:14;;;;;;;3.10;0.68;;;8.50;99.90;;;;;;5041958;28;20147;-85
2021/11/19 08:28:45;;;;;;;0.45;0.45;;;8.60;99.90;;;;;;5051715;28;20122;-86
2021/11/19 08:31:14;;;;;;;0.77;0.50;;;8.90;99.90;;;;;;5052190;28;20048;-87
2021/11/19 08:33:42;;;;;;;1.08;0.50;;;9.10;99.90;;;;;;5055570;28;20044;-87
2021/11/19 08:36:11;;;;;;;0.50;0.50;;;9.20;99.90;;;;;;5056405;28;20503;-86
2021/11/19 08:38:41;;;;;;;0.57;0.40;;;9.20;99.90;;;;;;5061285;28;20455;-87
2021/11/19 08:41:10;;;;;;;1.40;0.30;;;9.50;99.90;;;;;;5056437;28;20136;-86
2021/11/19 08:43:39;;;;;;;1.52;0.40;;;9.70;99.90;;;;;;5067824;28;20123;-86
2021/11/19 08:46:08;;;;;;;7.35;1.00;;;9.70;99.90;;;;;;5036160;28;20045;-88
2021/11/19 08:48:37;;;;;;;0.38;0.38;;;9.80;99.90;;;;;;5036276;28;20057;-87
2021/11/19 08:51:07;;;;;;;2.05;0.70;;;9.80;99.90;;;;;;5036381;28;20170;-87
2021/11/19 08:53:34;;;;;;;3.08;1.33;;;9.70;99.90;;;;;;5036217;28;20084;-87
2021/11/19 08:56:01;;;;;;;1.75;0.68;;;9.70;99.90;;;;;;5041776;28;20045;-87
2021/11/19 08:58:33;;;;;;;0.60;0.60;;;9.80;99.90;;;;;;5055925;28;20051;-87
2021/11/19 09:01:01;;;;;;;0.60;0.60;;;9.90;99.90;;;;;;5055782;28;20098;-87
2021/11/19 09:03:29;;;;;;;6.25;0.80;;;9.90;99.90;;;;;;5055846;28;20048;-87
2021/11/19 09:05:56;;;;;;;1.83;0.80;;;9.90;99.90;;;;;;5055797;28;20524;-87
2021/11/19 09:08:26;;;;;;;0.80;0.80;;;10.00;99.90;;;;;;5040632;28;20155;-86
2021/11/19 09:10:55;;;;;;;13.65;2.42;;;10.00;99.90;;;;;;5036994;28;20045;-87
2021/11/19 09:13:23;;;;;;;0.80;0.80;;;10.00;99.90;;;;;;5035604;28;20049;-87
2021/11/19 09:15:51;;;;;;;6.28;1.30;;;10.10;99.90;;;;;;5035524;28;20051;-87
2021/11/19 09:18:41;;;;;;;0.63;0.60;;;10.10;99.90;;;;;;5048186;28;20048;-88
2021/11/19 09:21:11;;;;;;;3.08;0.98;;;10.10;99.90;;;;;;5052142;28;20051;-85
2021/11/19 09:23:51;;;;;;;2.17;1.20;;;10.00;99.90;;;;;;5053143;28;20045;-87
2021/11/19 09:26:22;;;;;;;13.23;2.17;;;10.00;99.90;;;;;;5053162;28;20081;-87
2021/11/19 09:28:53;;;;;;;1.10;1.00;;;10.00;99.90;;;;;;5054541;28;20484;-87
2021/11/19 09:31:20;;;;;;;0.63;0.63;;;10.10;99.90;;;;;;5055115;28;20076;-87
2021/11/19 09:33:49;;;;;;;2.58;0.73;;;10.20;99.90;;;;;;5055183;28;20048;-87
2021/11/19 09:36:17;;;;;;;0.80;0.80;;;10.20;99.90;;;;;;5054999;28;20426;-87
2021/11/19 09:38:45;;;;;;;0.60;0.60;;;10.10;99.90;;;;;;5044792;28;20409;-87
2021/11/19 09:41:43;;;;;;;1.10;0.70;;;10.10;99.90;;;;;;5052977;28;20154;-86
2021/11/19 09:44:36;;;;;;;4.32;0.82;;;10.10;99.90;;;;;;5055528;28;20045;-86
2021/11/19 09:47:26;;;;;;;0.50;0.50;;;10.10;99.90;;;;;;5046595;28;20045;-86
2021/11/19 09:50:40;;;;;;;1.02;0.70;;;10.10;99.90;;;;;;5035221;28;20497;-86
2021/11/19 09:53:54;;;;;;;0.98;0.65;;;10.20;99.90;;;;;;5035313;28;20063;-86
2021/11/19 09:56:37;;;;;;;4.15;0.90;;;10.00;99.90;;;;;;5040239;28;20045;-87
2021/11/19 09:59:24;;;;;;;1.03;0.77;;;10.00;99.90;;;;;;5055160;28;20059;-87
2021/11/19 10:02:17;;;;;;;1.15;0.52;;;10.00;99.90;;;;;;5070538;28;20044;-88
2021/11/19 10:05:05;;;;;;;2.47;0.87;;;10.10;99.90;;;;;;5052056;28;20412;-86
2021/11/19 10:08:09;;;;;;;2.42;0.65;;;10.10;99.90;;;;;;5067768;28;20060;-87
2021/11/19 10:10:55;;;;;;;3.60;1.30;;;10.00;99.90;;;;;;5054862;28;20053;-87
2021/11/19 10:13:22;;;;;;;2.35;1.00;;;10.10;99.90;;;;;;5072711;28;20045;-86
2021/11/19 10:15:55;;;;;;;1.33;0.70;;;10.10;99.90;;;;;;5054834;28;20052;-87
2021/11/19 10:18:37;;;;;;;6.53;0.90;;;10.20;99.90;;;;;;5055846;28;20133;-86
2021/11/19 10:21:09;;;;;;;3.30;0.93;;;10.30;99.90;;;;;;5051951;28;20460;-87
2021/11/19 10:24:03;;;;;;;0.60;0.57;;;10.30;99.90;;;;;;5065437;28;20048;-87
2021/11/19 10:26:34;;;;;;;2.92;1.00;;;10.20;99.90;;;;;;5054594;28;20139;-86
2021/11/19 10:29:30;;;;;;;0.70;0.70;;;10.30;99.90;;;;;;5051330;28;20139;-87
2021/11/19 10:31:59;;;;;;;13.82;1.40;;;10.30;99.90;;;;;;5053686;28;20048;-88
2021/11/19 10:34:59;;;;;;;4.38;1.55;;;10.30;99.90;;;;;;5054857;28;20597;-87
2021/11/19 10:38:07;;;;;;;1.27;0.70;;;10.20;99.90;;;;;;5060653;28;20205;-87
2021/11/19 10:41:07;;;;;;;10.70;1.73;;;10.20;99.90;;;;;;5037669;28;20501;-87
2021/11/19 10:43:52;;;;;;;4.07;0.80;;;10.20;99.90;;;;;;5072500;28;20052;-87
2021/11/19 10:46:56;;;;;;;10.15;1.20;;;10.20;99.90;;;;;;5054444;28;20515;-87
2021/11/19 10:49:49;;;;;;;2.83;0.60;;;10.30;99.90;;;;;;5072116;28;20179;-87
2021/11/19 10:52:40;;;;;;;1.05;0.55;;;10.40;99.90;;;;;;5056004;28;20131;-87
2021/11/19 10:55:19;;;;;;;11.45;1.10;;;10.50;99.90;;;;;;5073083;28;20489;-88
2021/11/19 10:58:08;;;;;;;0.50;0.50;;;10.50;99.90;;;;;;5071417;28;20059;-88
2021/11/19 11:00:37;;;;;;;8.00;0.90;;;10.50;99.90;;;;;;5071111;28;20080;-87
2021/11/19 11:03:13;;;;;;;3.67;0.93;;;10.50;99.90;;;;;;5059364;28;20530;-87
2021/11/19 11:05:43;;;;;;;0.75;0.63;;;10.50;99.90;;;;;;5057933;28;20493;-88
2021/11/19 11:08:13;;;;;;;3.72;1.15;;;10.50;99.90;;;;;;5058887;28;20120;-90
2021/11/19 11:10:56;;;;;;;4.55;0.80;;;10.40;99.90;;;;;;5056184;28;20082;-88
2021/11/19 11:13:31;;;;;;;7.85;1.50;;;10.30;99.90;;;;;;5040267;28;20045;-88
2021/11/19 11:16:09;;;;;;;0.38;0.38;;;10.30;99.90;;;;;;5038235;28;20131;-89
2021/11/19 11:18:58;;;;;;;17.27;1.23;;;10.30;99.90;;;;;;5036909;28;20059;-87
2021/11/19 11:21:49;;;;;;;2.25;0.70;;;10.30;99.90;;;;;;5067181;28;20044;-89
2021/11/19 11:24:22;;;;;;;9.98;1.75;;;10.30;99.90;;;;;;5047055;28;20059;-88
2021/11/19 11:26:55;;;;;;;12.98;3.30;;;10.30;99.90;;;;;;5051520;28;20060;-89
2021/11/19 11:29:39;;;;;;;4.97;0.93;;;10.30;99.90;;;;;;5043508;28;20136;-88
2021/11/19 11:32:12;;;;;;;1.10;0.50;;;10.30;99.90;;;;;;5054423;28;20372;-88
2021/11/19 11:34:42;;;;;;;1.02;0.90;;;10.30;99.90;;;;;;5074420;28;20053;-88
2021/11/19 11:37:40;;;;;;;3.75;1.23;;;10.30;99.90;;;;;;5074235;28;20148;-87
2021/11/19 11:40:16;;;;;;;3.42;0.80;;;10.30;99.90;;;;;;5075683;28;20258;-87
2021/11/19 11:42:47;;;;;;;1.08;0.70;;;10.30;99.90;;;;;;5055316;28;20122;-88
2021/11/19 11:45:19;;;;;;;0.75;0.75;;;10.50;99.90;;;;;;5056283;28;20595;-87
2021/11/19 11:47:52;;;;;;;0.90;0.90;;;10.50;99.90;;;;;;5075371;28;20053;-88
2021/11/19 11:50:44;;;;;;;1.42;0.55;;;10.50;99.90;;;;;;5074672;28;20045;-89
2021/11/19 11:53:15;;;;;;;0.60;0.60;;;10.50;99.90;;;;;;5072445;28;20040;-87
2021/11/19 11:56:07;;;;;;;1.85;0.57;;;10.40;99.90;;;;;;5050815;28;20131;-87
2021/11/19 11:58:55;;;;;;;6.30;0.98;;;10.30;99.90;;;;;;5074829;28;20052;-87
2021/11/19 12:01:44;;;;;;;0.68;0.50;;;10.30;99.90;;;;;;5074908;28;20041;-88
2021/11/19 12:04:26;;;;;;;0.45;0.45;;;10.20;99.90;;;;;;5057514;28;20072;-88
2021/11/19 12:07:10;;;;;;;1.23;0.47;;;10.30;99.90;;;;;;5057335;28;20095;-87
2021/11/19 12:10:06;;;;;;;0.40;0.40;;;10.30;99.90;;;;;;5074789;28;20052;-86
2021/11/19 12:12:41;;;;;;;9.43;1.25;;;10.40;99.90;;;;;;5026651;28;20049;-87
2021/11/19 12:15:25;;;;;;;4.38;0.77;;;10.40;99.90;;;;;;5040231;28;20052;-90
2021/11/19 12:18:08;;;;;;;3.80;0.73;;;10.40;99.90;;;;;;5055770;28;20060;-87
2021/11/19 12:20:59;;;;;;;1.83;0.60;;;10.40;99.90;;;;;;5054430;28;20087;-87
2021/11/19 12:23:57;;;;;;;0.43;0.43;;;10.60;99.90;;;;;;5056599;28;20404;-86
2021/11/19 12:26:45;;;;;;;3.75;0.73;;;10.60;99.90;;;;;;5073474;28;20044;-87
2021/11/19 12:29:48;;;;;;;9.48;1.60;;;10.50;99.90;;;;;;5056805;28;20051;-87
2021/11/19 12:32:34;;;;;;;0.35;0.35;;;10.50;99.90;;;;;;5023593;28;20080;-87
2021/11/19 12:35:24;;;;;;;4.72;0.80;;;10.40;99.90;;;;;;5065903;28;20044;-88
2021/11/19 12:38:11;;;;;;;24.10;2.50;;;10.50;99.90;;;;;;5027886;28;20054;-87
2021/11/19 12:40:50;;;;;;;2.38;0.70;;;10.60;99.90;;;;;;5056261;28;20041;-87
2021/11/19 12:43:55;;;;;;;0.50;0.47;;;10.60;99.90;;;;;;5072589;28;20048;-89
2021/11/19 12:46:36;;;;;;;18.38;3.08;;;10.60;99.90;;;;;;5056081;28;20420;-87
2021/11/19 12:49:10;;;;;;;11.07;1.10;;;10.40;99.90;;;;;;5039683;28;20040;-88
2021/11/19 12:51:51;;;;;;;0.70;0.60;;;10.30;99.90;;;;;;5044469;28;20139;-87
2021/11/19 12:54:32;;;;;;;3.45;0.93;;;10.30;99.90;;;;;;5056048;28;20062;-88
2021/11/19 12:57:19;;;;;;;0.47;0.43;;;10.30;99.90;;;;;;5045166;28;20088;-87
2021/11/19 13:00:04;;;;;;;3.92;1.38;;;10.30;99.90;;;;;;5053848;28;20052;-88
2021/11/19 13:02:49;;;;;;;3.42;1.00;;;10.20;99.90;;;;;;5052118;28;20187;-88
2021/11/19 13:05:24;;;;;;;3.65;0.82;;;10.10;99.90;;;;;;5074009;28;20079;-87
2021/11/19 13:08:00;;;;;;;1.42;0.90;;;10.10;99.90;;;;;;5074033;28;20067;-87
2021/11/19 13:10:26;;;;;;;2.70;0.90;;;10.00;99.90;;;;;;5073683;28;20058;-88
2021/11/19 13:13:02;;;;;;;3.25;1.02;;;10.10;99.90;;;;;;5073416;28;20084;-89
2021/11/19 13:15:48;;;;;;;7.65;1.35;;;10.10;99.90;;;;;;5073093;28;20129;-88
2021/11/19 13:18:15;;;;;;;1.02;0.80;;;10.30;99.90;;;;;;5036027;28;20044;-88
2021/11/19 13:20:48;;;;;;;1.52;0.65;;;10.40;99.90;;;;;;5036844;28;20049;-88
2021/11/19 13:23:38;;;;;;;2.70;1.20;;;10.50;99.90;;;;;;5054478;28;20128;-88
2021/11/19 13:26:14;;;;;;;17.58;2.70;;;10.60;99.90;;;;;;5055657;28;20167;-86